Time;durP1;ratioP1;P1;durP2;ratioP2;P2;SDS_P1;SDS_P2;PMS_P1;PMS_P2;Temp;Humidity;BMP_temperature;BMP_pressure;BME280_temperature;BME280_humidity;BME280_pressure;Samples;Min_cycle;Max_cycle;Signal;HPM_P1;HPM_P2
2023/10/20 00:00:39;;;;;;;;;;;;;;;12.84;100.00;93829.41;5066107;28;20122;-75
2023/10/20 00:03:06;;;;;;;;;;;;;;;12.84;100.00;93824.16;5066823;28;19942;-75
2023/10/20 00:05:33;;;;;;;;;;;;;;;12.84;100.00;93839.91;5065986;28;19945;-75
2023/10/20 00:08:00;;;;;;;;;;;;;;;12.83;100.00;93831.25;5066451;28;19979;-75
2023/10/20 00:10:26;;;;;;;;;;;;;;;12.77;100.00;93825.31;5065938;28;19935;-71
2023/10/20 00:12:52;;;;;;;;;;;;;;;12.73;100.00;93827.00;5065873;28;19943;-76
2023/10/20 00:15:18;;;;;;;;;;;;;;;12.72;100.00;93828.03;5065838;28;19958;-73
2023/10/20 00:17:43;;;;;;;;;;;;;;;12.73;100.00;93828.84;5065741;28;20219;-73
2023/10/20 00:20:10;;;;;;;;;;;;;;;12.73;100.00;93837.50;5066572;28;19942;-73
2023/10/20 00:22:35;;;;;;;;;;;;;;;12.74;100.00;93825.13;5065641;28;19982;-74
2023/10/20 00:25:01;;;;;;;;;;;;;;;12.73;100.00;93810.44;5065683;28;19939;-73
2023/10/20 00:27:28;;;;;;;;;;;;;;;12.69;100.00;93799.72;5066048;28;20288;-74
2023/10/20 00:29:54;;;;;;;;;;;;;;;12.65;100.00;93792.72;5065551;28;19945;-76
2023/10/20 00:32:20;;;;;;;;;;;;;;;12.64;100.00;93788.53;5066051;28;19950;-90
2023/10/20 00:34:45;;;;;;;;;;;;;;;12.64;100.00;93775.38;5065479;28;19958;-89
2023/10/20 00:37:11;;;;;;;;;;;;;;;12.66;100.00;93779.31;5065727;28;19977;-90
2023/10/20 00:39:37;;;;;;;;;;;;;;;12.67;100.00;93775.59;5064317;28;19955;-89
2023/10/20 00:42:03;;;;;;;;;;;;;;;12.68;100.00;93777.16;5065406;28;20134;-89
2023/10/20 00:44:29;;;;;;;;;;;;;;;12.69;100.00;93770.03;5066050;28;19990;-84
2023/10/20 00:46:55;;;;;;;;;;;;;;;12.69;100.00;93760.28;5065544;28;20236;-83
2023/10/20 00:49:21;;;;;;;;;;;;;;;12.71;100.00;93752.13;5065210;28;19983;-84
2023/10/20 00:51:47;;;;;;;;;;;;;;;12.70;100.00;93756.56;5065687;28;19947;-85
2023/10/20 00:54:14;;;;;;;;;;;;;;;12.71;100.00;93744.22;5065400;28;19943;-84
2023/10/20 00:56:42;;;;;;;;;;;;;;;12.70;100.00;93758.44;5047044;28;20447;-87
2023/10/20 00:59:08;;;;;;;;;;;;;;;12.68;100.00;93745.59;5065568;28;20128;-87
2023/10/20 01:01:35;;;;;;;;;;;;;;;12.68;100.00;93740.34;5064923;28;19941;-86
2023/10/20 01:04:01;;;;;;;;;;;;;;;12.68;100.00;93736.91;5065416;28;19943;-86
2023/10/20 01:06:27;;;;;;;;;;;;;;;12.68;100.00;93742.19;5065143;28;19941;-77
2023/10/20 01:08:56;;;;;;;;;;;;;;;12.68;100.00;93742.97;5064753;28;20092;-73
2023/10/20 01:11:22;;;;;;;;;;;;;;;12.66;100.00;93734.59;5065055;28;19962;-74
2023/10/20 01:13:48;;;;;;;;;;;;;;;12.68;100.00;93721.16;5064670;28;20226;-74
2023/10/20 01:16:14;;;;;;;;;;;;;;;12.68;100.00;93721.16;5064695;28;20226;-74
2023/10/20 01:18:40;;;;;;;;;;;;;;;12.67;100.00;93716.97;5064614;28;19943;-74
2023/10/20 01:21:05;;;;;;;;;;;;;;;12.66;100.00;93718.84;5064526;28;19940;-74
2023/10/20 01:23:31;;;;;;;;;;;;;;;12.67;100.00;93712.50;5064747;28;19943;-75
2023/10/20 01:25:57;;;;;;;;;;;;;;;12.66;100.00;93697.81;5064574;28;19942;-70
2023/10/20 01:28:23;;;;;;;;;;;;;;;12.67;100.00;93688.06;5064851;28;19959;-70
2023/10/20 01:30:49;;;;;;;;;;;;;;;12.66;100.00;93673.34;5064622;28;19934;-70
2023/10/20 01:33:15;;;;;;;;;;;;;;;12.66;100.00;93660.19;5064906;28;19941;-70
2023/10/20 01:35:41;;;;;;;;;;;;;;;12.65;100.00;93653.41;5064188;28;19980;-70
2023/10/20 01:38:07;;;;;;;;;;;;;;;12.64;100.00;93647.38;5064305;28;19942;-70
2023/10/20 01:40:33;;;;;;;;;;;;;;;12.63;100.00;93637.91;5064757;28;19938;-71
2023/10/20 01:42:59;;;;;;;;;;;;;;;12.63;100.00;93622.16;5064198;28;19938;-74
2023/10/20 01:45:24;;;;;;;;;;;;;;;12.62;100.00;93611.94;5064218;28;19953;-73
2023/10/20 01:47:50;;;;;;;;;;;;;;;12.63;100.00;93608.22;5064016;28;20141;-89
2023/10/20 01:50:16;;;;;;;;;;;;;;;12.63;100.00;93600.34;5064926;28;19939;-86
2023/10/20 01:52:42;;;;;;;;;;;;;;;12.62;100.00;93593.53;5062867;28;19944;-86
2023/10/20 01:55:09;;;;;;;;;;;;;;;12.61;100.00;93573.59;5064063;28;19938;-86
2023/10/20 01:57:35;;;;;;;;;;;;;;;12.58;100.00;93567.84;5064189;28;20129;-85
2023/10/20 02:00:02;;;;;;;;;;;;;;;12.59;100.00;93564.13;5064034;28;19949;-85
2023/10/20 02:02:28;;;;;;;;;;;;;;;12.58;100.00;93548.69;5063958;28;20249;-71
2023/10/20 02:04:54;;;;;;;;;;;;;;;12.56;100.00;93545.56;5063963;28;19940;-70
2023/10/20 02:07:20;;;;;;;;;;;;;;;12.53;100.00;93541.69;5064405;28;19949;-70
2023/10/20 02:09:46;;;;;;;;;;;;;;;12.53;100.00;93546.16;5063860;28;20176;-70
2023/10/20 02:12:14;;;;;;;;;;;;;;;12.51;100.00;93530.69;5064159;28;19944;-70
2023/10/20 02:14:40;;;;;;;;;;;;;;;12.50;100.00;93525.75;5063845;28;19935;-70
2023/10/20 02:17:06;;;;;;;;;;;;;;;12.49;100.00;93537.31;5063790;28;20242;-70
2023/10/20 02:19:32;;;;;;;;;;;;;;;12.48;100.00;93527.91;5064625;28;19981;-72
2023/10/20 02:21:59;;;;;;;;;;;;;;;12.48;100.00;93531.31;5064371;28;19945;-70
2023/10/20 02:24:25;;;;;;;;;;;;;;;12.46;100.00;93515.06;5064607;28;19938;-72
2023/10/20 02:26:51;;;;;;;;;;;;;;;12.46;100.00;93527.44;5064224;28;19936;-72
2023/10/20 02:29:17;;;;;;;;;;;;;;;12.45;100.00;93531.91;5063736;28;19978;-73
2023/10/20 02:31:43;;;;;;;;;;;;;;;12.47;100.00;93540.25;5063616;28;19933;-72
2023/10/20 02:34:09;;;;;;;;;;;;;;;12.48;100.00;93541.03;5063696;28;19941;-72
2023/10/20 02:36:35;;;;;;;;;;;;;;;12.47;100.00;93548.13;5064178;28;19971;-73
2023/10/20 02:39:01;;;;;;;;;;;;;;;12.49;100.00;93547.84;5065918;28;19954;-70
2023/10/20 02:41:28;;;;;;;;;;;;;;;12.48;100.00;93551.56;5067677;28;20231;-77
2023/10/20 02:43:54;;;;;;;;;;;;;;;12.48;100.00;93546.31;5067558;28;19969;-77
2023/10/20 02:46:20;;;;;;;;;;;;;;;12.47;100.00;93556.00;5067816;28;19942;-77
2023/10/20 02:48:46;;;;;;;;;;;;;;;12.50;100.00;93559.91;5067385;28;19970;-76
2023/10/20 02:51:13;;;;;;;;;;;;;;;12.50;100.00;93563.31;5067445;28;19977;-74
2023/10/20 02:53:41;;;;;;;;;;;;;;;12.49;100.00;93561.75;5067393;28;19937;-74
2023/10/20 02:56:11;;;;;;;;;;;;;;;12.51;100.00;93553.56;5067545;28;19939;-73
2023/10/20 02:58:37;;;;;;;;;;;;;;;12.52;100.00;93549.88;5067388;28;19939;-76
2023/10/20 03:01:05;;;;;;;;;;;;;;;12.50;100.00;93537.03;5067809;28;19966;-74
2023/10/20 03:03:31;;;;;;;;;;;;;;;12.50;100.00;93526.53;5067730;28;19944;-74
2023/10/20 03:05:57;;;;;;;;;;;;;;;12.50;100.00;93509.97;5067207;28;19942;-74
2023/10/20 03:08:22;;;;;;;;;;;;;;;12.49;100.00;93506.56;5067056;28;20030;-74
2023/10/20 03:10:48;;;;;;;;;;;;;;;12.50;100.00;93491.59;5067096;28;19942;-74
2023/10/20 03:13:16;;;;;;;;;;;;;;;12.49;100.00;93466.38;5067061;28;20262;-74
2023/10/20 03:15:42;;;;;;;;;;;;;;;12.48;100.00;93454.31;5066994;28;20152;-76
2023/10/20 03:18:08;;;;;;;;;;;;;;;12.48;100.00;93435.94;5067042;28;19935;-74
2023/10/20 03:20:34;;;;;;;;;;;;;;;12.47;100.00;93424.63;5066912;28;19944;-74
2023/10/20 03:23:00;;;;;;;;;;;;;;;12.48;100.00;93415.66;5066890;28;19934;-74
2023/10/20 03:25:26;;;;;;;;;;;;;;;12.46;100.00;93409.94;5067034;28;19941;-74
2023/10/20 03:27:52;;;;;;;;;;;;;;;12.46;100.00;93404.69;5066673;28;19956;-74
2023/10/20 03:30:18;;;;;;;;;;;;;;;12.44;100.00;93388.44;5066698;28;20106;-74
2023/10/20 03:32:48;;;;;;;;;;;;;;;12.43;100.00;93396.63;5067429;28;19936;-74
2023/10/20 03:35:14;;;;;;;;;;;;;;;12.42;100.00;93374.84;5066606;28;19960;-73
2023/10/20 03:37:39;;;;;;;;;;;;;;;12.39;100.00;93363.09;5067040;28;19940;-74
2023/10/20 03:40:13;;;;;;;;;;;;;;;12.35;100.00;93346.38;5066471;28;20152;-75
2023/10/20 03:42:48;;;;;;;;;;;;;;;12.31;100.00;93342.03;5066743;28;19948;-75
2023/10/20 03:45:15;;;;;;;;;;;;;;;12.28;100.00;93351.28;5066435;28;19944;-75
2023/10/20 03:47:43;;;;;;;;;;;;;;;12.28;100.00;93342.63;5066120;28;19962;-74
2023/10/20 03:50:16;;;;;;;;;;;;;;;12.26;100.00;93337.69;5065923;28;20000;-75
2023/10/20 03:52:44;;;;;;;;;;;;;;;12.23;100.00;93327.03;5066407;28;19936;-75
2023/10/20 03:55:13;;;;;;;;;;;;;;;12.23;100.00;93327.03;5066820;28;19946;-90
2023/10/20 03:57:40;;;;;;;;;;;;;;;12.21;100.00;93322.06;5067050;28;20186;-89
2023/10/20 04:02:52;;;;;;;;;;;;;;;12.20;100.00;93320.53;5066269;28;19930;-78
2023/10/20 04:05:19;;;;;;;;;;;;;;;12.38;100.00;93308.22;5066526;28;19944;-78
2023/10/20 04:07:45;;;;;;;;;;;;;;;12.58;100.00;93297.13;5065866;28;20146;-79
2023/10/20 04:10:12;;;;;;;;;;;;;;;12.81;100.00;93294.38;5065668;28;20006;-76
2023/10/20 04:12:41;;;;;;;;;;;;;;;12.98;100.00;93294.34;5065936;28;19942;-72
2023/10/20 04:15:19;;;;;;;;;;;;;;;13.15;100.00;93269.91;5065693;28;19941;-80
2023/10/20 04:17:45;;;;;;;;;;;;;;;13.33;100.00;93267.25;5064706;28;19935;-81
2023/10/20 04:20:18;;;;;;;;;;;;;;;13.47;100.00;93265.22;5064582;28;20130;-74
2023/10/20 04:22:47;;;;;;;;;;;;;;;13.45;100.00;93259.50;5065571;28;19961;-74
2023/10/20 04:25:15;;;;;;;;;;;;;;;13.34;100.00;93260.94;5066314;28;20020;-74
2023/10/20 04:27:48;;;;;;;;;;;;;;;13.19;100.00;93257.66;5065442;28;19950;-74
2023/10/20 04:59:56;;;;;;;;;;;;;;;12.38;100.00;93158.44;5064761;28;19937;-75
2023/10/20 05:02:33;;;;;;;;;;;;;;;12.33;100.00;93145.47;5064687;28;19951;-76
2023/10/20 05:05:01;;;;;;;;;;;;;;;12.28;100.00;93132.47;5064793;28;20127;-76
2023/10/20 05:07:28;;;;;;;;;;;;;;;12.23;100.00;93117.66;5065189;28;19943;-74
2023/10/20 05:09:56;;;;;;;;;;;;;;;12.21;100.00;93122.44;5064565;28;19940;-74
2023/10/20 05:12:22;;;;;;;;;;;;;;;12.19;100.00;93114.88;5064543;28;19941;-74
2023/10/20 05:14:49;;;;;;;;;;;;;;;12.16;100.00;93118.13;5064602;28;20254;-74
2023/10/20 05:17:17;;;;;;;;;;;;;;;12.16;100.00;93115.50;5065383;28;19950;-74
2023/10/20 05:19:43;;;;;;;;;;;;;;;12.16;100.00;93112.09;5064594;28;19935;-74
2023/10/20 05:22:09;;;;;;;;;;;;;;;12.15;100.00;93111.31;5064530;28;19941;-74
2023/10/20 05:24:35;;;;;;;;;;;;;;;12.13;100.00;93097.72;5064536;28;20036;-79
2023/10/20 05:27:01;;;;;;;;;;;;;;;12.16;100.00;93088.47;5064489;28;19944;-71
2023/10/20 05:29:27;;;;;;;;;;;;;;;12.14;100.00;93057.25;5064375;28;19980;-71
2023/10/20 05:31:53;;;;;;;;;;;;;;;12.14;100.00;93019.72;5064427;28;20135;-71
2023/10/20 05:34:18;;;;;;;;;;;;;;;12.11;100.00;93021.09;5064351;28;20225;-70
2023/10/20 05:36:44;;;;;;;;;;;;;;;12.08;100.00;93005.22;5064530;28;19958;-71
2023/10/20 05:39:13;;;;;;;;;;;;;;;12.05;100.00;93009.19;5064262;28;19935;-71
2023/10/20 05:41:39;;;;;;;;;;;;;;;12.04;100.00;93018.19;5064208;28;19950;-72
2023/10/20 05:44:06;;;;;;;;;;;;;;;12.02;100.00;93001.97;5064215;28;19935;-76
2023/10/20 05:46:32;;;;;;;;;;;;;;;12.03;100.00;93011.38;5063084;28;20209;-74
2023/10/20 05:48:58;;;;;;;;;;;;;;;12.03;100.00;92989.59;5063994;28;19967;-74
2023/10/20 05:51:24;;;;;;;;;;;;;;;12.03;100.00;92971.22;5064119;28;19992;-74
2023/10/20 05:53:49;;;;;;;;;;;;;;;12.01;100.00;92963.66;5064802;28;19943;-74
2023/10/20 05:56:15;;;;;;;;;;;;;;;12.01;100.00;92958.41;5064035;28;19944;-74
2023/10/20 05:58:41;;;;;;;;;;;;;;;12.00;100.00;92954.25;5064762;28;19965;-74
2023/10/20 06:01:11;;;;;;;;;;;;;;;11.97;100.00;92958.25;5064258;28;19945;-75
2023/10/20 06:03:37;;;;;;;;;;;;;;;11.95;100.00;92957.81;5063922;28;20150;-76
2023/10/20 06:06:03;;;;;;;;;;;;;;;11.97;100.00;92947.75;5063927;28;19941;-76
2023/10/20 06:08:30;;;;;;;;;;;;;;;11.94;100.00;92932.63;5063812;28;19959;-76
2023/10/20 06:11:05;;;;;;;;;;;;;;;11.92;100.00;92934.03;5063862;28;19967;-76
2023/10/20 06:13:32;;;;;;;;;;;;;;;11.88;100.00;92910.25;5064275;28;19942;-76
2023/10/20 06:16:04;;;;;;;;;;;;;;;11.86;100.00;92915.00;5064550;28;19939;-75
2023/10/20 06:18:29;;;;;;;;;;;;;;;11.86;100.00;92935.22;5064667;28;19942;-87
2023/10/20 06:20:55;;;;;;;;;;;;;;;11.85;100.00;92933.72;5063689;28;19989;-77
2023/10/20 06:23:21;;;;;;;;;;;;;;;11.84;100.00;92922.41;5063694;28;19940;-72
2023/10/20 06:25:47;;;;;;;;;;;;;;;11.83;100.00;92905.13;5064469;28;19943;-71
2023/10/20 06:28:13;;;;;;;;;;;;;;;11.83;100.00;92905.13;5063609;28;19949;-71
2023/10/20 06:30:43;;;;;;;;;;;;;;;11.83;100.00;92896.50;5064173;28;19952;-71
2023/10/20 06:35:49;;;;;;;;;;;;;;;11.83;100.00;92884.13;5063516;28;19974;-71
2023/10/20 06:38:17;;;;;;;;;;;;;;;11.85;100.00;92891.72;5064159;28;19948;-77
2023/10/20 06:40:44;;;;;;;;;;;;;;;11.86;100.00;92893.25;5063512;28;20246;-74
2023/10/20 06:43:10;;;;;;;;;;;;;;;11.87;100.00;92894.78;5063809;28;19938;-73
2023/10/20 06:45:36;;;;;;;;;;;;;;;11.88;100.00;92877.94;5063488;28;20229;-73
2023/10/20 06:48:01;;;;;;;;;;;;;;;11.90;100.00;92881.81;5063383;28;19966;-74
2023/10/20 06:50:27;;;;;;;;;;;;;;;11.90;100.00;92858.19;5063388;28;19991;-73
2023/10/20 06:52:53;;;;;;;;;;;;;;;11.94;100.00;92868.84;5063465;28;19946;-73
2023/10/20 06:55:19;;;;;;;;;;;;;;;11.96;100.00;92864.06;5063941;28;19947;-85
2023/10/20 06:57:45;;;;;;;;;;;;;;;11.98;100.00;92862.66;5063324;28;19950;-78
2023/10/20 07:00:17;;;;;;;;;;;;;;;12.00;100.00;92858.97;5063354;28;19945;-78
2023/10/20 07:02:43;;;;;;;;;;;;;;;12.03;100.00;92855.69;5063772;28;19940;-79
2023/10/20 07:05:10;;;;;;;;;;;;;;;12.05;100.00;92849.03;5063737;28;20127;-79
2023/10/20 07:07:36;;;;;;;;;;;;;;;12.08;100.00;92842.41;5063795;28;19937;-80
2023/10/20 07:10:02;;;;;;;;;;;;;;;12.08;100.00;92848.41;5063653;28;19950;-79
2023/10/20 07:12:29;;;;;;;;;;;;;;;12.09;100.00;92847.31;5063205;28;20248;-79
2023/10/20 07:14:55;;;;;;;;;;;;;;;12.09;100.00;92852.56;5064009;28;19941;-71
2023/10/20 07:17:20;;;;;;;;;;;;;;;12.11;100.00;92858.28;5063456;28;19934;-73
2023/10/20 07:19:46;;;;;;;;;;;;;;;12.13;100.00;92852.72;5063146;28;20179;-74
2023/10/20 07:22:12;;;;;;;;;;;;;;;12.13;100.00;92861.34;5063165;28;20001;-73
2023/10/20 07:24:39;;;;;;;;;;;;;;;12.13;100.00;92869.25;5064496;28;19950;-74
2023/10/20 07:27:05;;;;;;;;;;;;;;;12.13;100.00;92858.72;5067174;28;20132;-74
2023/10/20 07:29:31;;;;;;;;;;;;;;;12.15;100.00;92866.31;5066634;28;20142;-73
2023/10/20 07:31:58;;;;;;;;;;;;;;;12.18;100.00;92873.56;5067067;28;19984;-74
2023/10/20 07:34:25;;;;;;;;;;;;;;;12.21;100.00;92864.28;5066494;28;20239;-74
2023/10/20 07:36:51;;;;;;;;;;;;;;;12.27;100.00;92878.78;5067294;28;19940;-85
2023/10/20 07:39:17;;;;;;;;;;;;;;;12.31;100.00;92883.09;5066463;28;19946;-86
2023/10/20 07:41:43;;;;;;;;;;;;;;;12.35;100.00;92872.72;5066475;28;19943;-86
2023/10/20 07:44:13;;;;;;;;;;;;;;;12.39;100.00;92871.78;5066377;28;19935;-85
2023/10/20 07:46:41;;;;;;;;;;;;;;;12.44;100.00;92880.56;5065124;28;20135;-87
2023/10/20 07:49:11;;;;;;;;;;;;;;;12.47;100.00;92875.41;5064938;28;19965;-85
2023/10/20 07:51:40;;;;;;;;;;;;;;;12.49;100.00;92870.63;5067049;28;19954;-76
2023/10/20 07:54:07;;;;;;;;;;;;;;;12.50;100.00;92877.44;5066235;28;19946;-78
2023/10/20 07:56:32;;;;;;;;;;;;;;;12.55;100.00;92876.47;5066134;28;19935;-77
2023/10/20 07:58:58;;;;;;;;;;;;;;;12.58;100.00;92881.88;5066632;28;19952;-78
2023/10/20 08:01:25;;;;;;;;;;;;;;;12.61;100.00;92892.84;5066368;28;19939;-78
2023/10/20 08:03:52;;;;;;;;;;;;;;;12.63;100.00;92901.19;5066029;28;19948;-78
2023/10/20 08:06:21;;;;;;;;;;;;;;;12.65;100.00;92909.50;5066731;28;19933;-79
2023/10/20 08:08:47;;;;;;;;;;;;;;;12.66;100.00;92927.59;5066356;28;19961;-78
2023/10/20 08:11:13;;;;;;;;;;;;;;;12.69;100.00;92928.81;5066019;28;19947;-73
2023/10/20 08:13:39;;;;;;;;;;;;;;;12.73;100.00;92937.63;5065876;28;19940;-72
2023/10/20 08:16:06;;;;;;;;;;;;;;;12.74;100.00;92942.53;5065759;28;19941;-73
2023/10/20 08:18:33;;;;;;;;;;;;;;;12.77;100.00;92951.66;5065731;28;19930;-72
2023/10/20 08:21:03;;;;;;;;;;;;;;;12.78;100.00;92959.22;5065635;28;19940;-72
2023/10/20 08:23:29;;;;;;;;;;;;;;;12.81;100.00;92968.34;5065636;28;19936;-73
2023/10/20 08:25:54;;;;;;;;;;;;;;;12.86;100.00;92980.53;5065608;28;20251;-72
2023/10/20 08:28:20;;;;;;;;;;;;;;;12.94;100.00;93006.03;5065521;28;19957;-70
2023/10/20 08:30:46;;;;;;;;;;;;;;;12.99;100.00;93008.47;5066001;28;19940;-75
2023/10/20 08:33:12;;;;;;;;;;;;;;;13.03;100.00;93009.38;5065484;28;19939;-76
2023/10/20 08:35:38;;;;;;;;;;;;;;;13.10;100.00;93027.28;5064304;28;20001;-76
2023/10/20 08:38:04;;;;;;;;;;;;;;;13.16;100.00;93039.16;5065330;28;20010;-75
2023/10/20 08:40:33;;;;;;;;;;;;;;;13.21;100.00;93044.28;5065366;28;20121;-75
2023/10/20 08:43:02;;;;;;;;;;;;;;;13.27;100.00;93050.09;5065496;28;20228;-75
2023/10/20 08:45:31;;;;;;;;;;;;;;;13.30;100.00;93066.06;5065264;28;19939;-76
2023/10/20 08:47:59;;;;;;;;;;;;;;;13.29;100.00;93075.06;5065001;28;20295;-72
2023/10/20 08:50:26;;;;;;;;;;;;;;;13.29;100.00;93087.41;5065686;28;19961;-76
2023/10/20 08:52:52;;;;;;;;;;;;;;;13.30;100.00;93100.25;5065070;28;19948;-75
2023/10/20 08:55:18;;;;;;;;;;;;;;;13.33;100.00;93080.44;5065027;28;19943;-75
2023/10/20 08:57:44;;;;;;;;;;;;;;;13.38;100.00;93077.63;5065198;28;19934;-76
2023/10/20 09:00:19;;;;;;;;;;;;;;;13.43;100.00;93074.06;5065537;28;19944;-76
2023/10/20 09:02:45;;;;;;;;;;;;;;;13.48;100.00;93076.50;5065462;28;19950;-76
2023/10/20 09:05:11;;;;;;;;;;;;;;;13.49;100.00;93078.81;5064871;28;19942;-77
2023/10/20 09:07:37;;;;;;;;;;;;;;;13.50;100.00;93077.72;5064884;28;20123;-85
2023/10/20 09:10:03;;;;;;;;;;;;;;;13.49;100.00;93089.34;5064788;28;19956;-85
2023/10/20 09:12:30;;;;;;;;;;;;;;;13.50;100.00;93074.31;5064736;28;19939;-85
2023/10/20 09:14:56;;;;;;;;;;;;;;;13.53;100.00;93071.06;5064745;28;19943;-85
2023/10/20 09:17:23;;;;;;;;;;;;;;;13.57;100.00;93077.22;5064680;28;19942;-85
2023/10/20 09:19:49;;;;;;;;;;;;;;;13.58;100.00;93079.53;5065334;28;19947;-84
2023/10/20 09:22:14;;;;;;;;;;;;;;;13.61;100.00;93078.13;5064568;28;19988;-83
2023/10/20 09:24:41;;;;;;;;;;;;;;;13.66;100.00;93077.16;5065328;28;19938;-84
2023/10/20 09:27:07;;;;;;;;;;;;;;;13.70;100.00;93078.06;5064143;28;19936;-72
2023/10/20 09:29:34;;;;;;;;;;;;;;;13.79;100.00;93087.44;5064298;28;19953;-72
2023/10/20 09:32:00;;;;;;;;;;;;;;;14.00;100.00;93084.06;5064285;28;19939;-71
2023/10/20 09:34:25;;;;;;;;;;;;;;;14.20;100.00;93095.69;5064288;28;19961;-72
2023/10/20 09:36:56;;;;;;;;;;;;;;;14.32;100.00;93094.97;5064233;28;20166;-71
2023/10/20 09:39:29;;;;;;;;;;;;;;;14.43;100.00;93103.25;5065297;28;19935;-71
2023/10/20 09:42:00;;;;;;;;;;;;;;;14.46;100.00;93102.59;5064401;28;19948;-73
2023/10/20 09:44:34;;;;;;;;;;;;;;;14.47;100.00;93099.66;5064982;28;19937;-84
2023/10/20 09:47:11;;;;;;;;;;;;;;;14.53;100.00;93108.91;5064652;28;19938;-81
2023/10/20 09:49:39;;;;;;;;;;;;;;;14.57;100.00;93117.72;5064384;28;19956;-82
2023/10/20 09:52:05;;;;;;;;;;;;;;;14.61;100.00;93123.09;5063523;28;20236;-83
2023/10/20 09:54:33;;;;;;;;;;;;;;;14.65;100.00;93134.56;5063771;28;20030;-83
2023/10/20 09:56:59;;;;;;;;;;;;;;;14.67;100.00;93147.41;5064007;28;19941;-83
2023/10/20 09:59:27;;;;;;;;;;;;;;;14.66;100.00;93137.94;5063987;28;19939;-83
2023/10/20 10:01:53;;;;;;;;;;;;;;;14.61;100.00;93146.84;5062754;28;19941;-73
2023/10/20 10:04:27;;;;;;;;;;;;;;;14.57;100.00;93154.66;5063864;28;19943;-77
2023/10/20 10:06:53;;;;;;;;;;;;;;;14.56;100.00;93160.22;5064151;28;19937;-78
2023/10/20 10:09:18;;;;;;;;;;;;;;;14.59;100.00;93167.47;5063746;28;20313;-77
2023/10/20 10:11:44;;;;;;;;;;;;;;;14.65;100.00;93168.81;5063780;28;19935;-78
2023/10/20 10:14:18;;;;;;;;;;;;;;;14.70;100.00;93183.69;5064305;28;19943;-78
2023/10/20 10:16:53;;;;;;;;;;;;;;;14.72;100.00;93177.00;5062507;28;19941;-78
2023/10/20 10:19:19;;;;;;;;;;;;;;;14.75;100.00;93173.72;5063722;28;19940;-73
2023/10/20 10:21:48;;;;;;;;;;;;;;;14.80;100.00;93181.44;5063257;28;19960;-78
2023/10/20 10:24:16;;;;;;;;;;;;;;;14.87;100.00;93180.91;5063530;28;19944;-78
2023/10/20 10:26:44;;;;;;;;;;;;;;;14.90;100.00;93184.75;5062449;28;19943;-78
2023/10/20 10:29:10;;;;;;;;;;;;;;;14.93;100.00;93187.53;5063534;28;19959;-78
2023/10/20 10:31:36;;;;;;;;;;;;;;;14.95;100.00;93203.81;5064369;28;20001;-77
2023/10/20 10:34:05;;;;;;;;;;;;;;;14.98;100.00;93216.34;5063494;28;20018;-76
2023/10/20 10:36:44;;;;;;;;;;;;;;;15.01;100.00;93215.69;5063784;28;19945;-73
2023/10/20 10:39:19;;;;;;;;;;;;;;;15.05;100.00;93226.34;5063522;28;19946;-71
2023/10/20 10:41:46;;;;;;;;;;;;;;;15.06;100.00;93243.75;5063544;28;19935;-73
2023/10/20 10:44:12;;;;;;;;;;;;;;;15.04;100.00;93251.22;5063426;28;19942;-72
2023/10/20 10:46:38;;;;;;;;;;;;;;;14.96;100.00;93252.81;5064296;28;19943;-72
2023/10/20 10:49:10;;;;;;;;;;;;;;;14.94;100.00;93251.59;5063237;28;20321;-71
2023/10/20 10:51:42;;;;;;;;;;;;;;;14.90;100.00;93250.69;5063348;28;19939;-72
2023/10/20 10:54:08;;;;;;;;;;;;;;;14.90;100.00;93259.38;5063339;28;19939;-72
2023/10/20 10:56:34;;;;;;;;;;;;;;;14.87;100.00;93257.41;5063934;28;19946;-74
2023/10/20 10:59:00;;;;;;;;;;;;;;;14.82;100.00;93247.03;5063808;28;20125;-72
2023/10/20 11:01:26;;;;;;;;;;;;;;;14.80;100.00;93241.31;5067236;28;20276;-73
2023/10/20 11:03:52;;;;;;;;;;;;;;;14.78;100.00;93248.78;5067147;28;19948;-72
2023/10/20 11:06:18;;;;;;;;;;;;;;;14.76;100.00;93254.38;5067065;28;19939;-72
2023/10/20 11:08:44;;;;;;;;;;;;;;;14.77;100.00;93257.78;5067476;28;19943;-72
2023/10/20 11:11:10;;;;;;;;;;;;;;;14.76;100.00;93249.13;5067019;28;19942;-71
2023/10/20 11:13:36;;;;;;;;;;;;;;;14.80;100.00;93251.84;5067509;28;19940;-72
2023/10/20 11:16:03;;;;;;;;;;;;;;;14.85;100.00;93245.63;5065748;28;19951;-77
2023/10/20 11:18:30;;;;;;;;;;;;;;;14.89;100.00;93252.56;5066835;28;19938;-77
2023/10/20 11:20:56;;;;;;;;;;;;;;;14.93;100.00;93258.75;5066768;28;19935;-76
2023/10/20 11:23:29;;;;;;;;;;;;;;;14.99;100.00;93260.09;5065630;28;19939;-76
2023/10/20 11:25:56;;;;;;;;;;;;;;;15.06;100.00;93254.28;5067266;28;19942;-77
2023/10/20 11:28:22;;;;;;;;;;;;;;;15.09;100.00;93269.47;5067245;28;19942;-76
2023/10/20 11:30:48;;;;;;;;;;;;;;;15.11;100.00;93279.72;5066629;28;20144;-77
2023/10/20 11:33:15;;;;;;;;;;;;;;;15.12;100.00;93282.03;5066722;28;20180;-75
2023/10/20 11:35:42;;;;;;;;;;;;;;;15.13;100.00;93280.91;5066627;28;19953;-80
2023/10/20 11:38:08;;;;;;;;;;;;;;;15.16;100.00;93266.31;5066994;28;20228;-80
2023/10/20 11:40:34;;;;;;;;;;;;;;;15.19;100.00;93274.34;5066477;28;19941;-81
2023/10/20 11:42:59;;;;;;;;;;;;;;;15.22;100.00;93265.00;5066429;28;19936;-79
2023/10/20 11:45:25;;;;;;;;;;;;;;;15.29;100.00;93272.41;5066707;28;19980;-79
2023/10/20 11:47:51;;;;;;;;;;;;;;;15.33;100.00;93268.00;5066234;28;19987;-80
2023/10/20 11:50:21;;;;;;;;;;;;;;;15.38;100.00;93286.28;5066311;28;19959;-73
2023/10/20 11:52:47;;;;;;;;;;;;;;;15.44;100.00;93287.63;5066282;28;19979;-78
2023/10/20 11:55:13;;;;;;;;;;;;;;;15.48;100.00;93301.75;5067079;28;20219;-74
2023/10/20 11:57:40;;;;;;;;;;;;;;;15.52;100.00;93312.44;5066162;28;19951;-73
2023/10/20 12:00:09;;;;;;;;;;;;;;;15.60;100.00;93304.41;5066179;28;19940;-73
2023/10/20 12:02:36;;;;;;;;;;;;;;;15.64;100.00;93304.50;5066435;28;19953;-73
2023/10/20 12:05:01;;;;;;;;;;;;;;;15.65;100.00;93319.28;5066062;28;19940;-74
2023/10/20 12:07:28;;;;;;;;;;;;;;;15.68;100.00;93336.34;5065988;28;19960;-74
2023/10/20 12:09:53;;;;;;;;;;;;;;;15.68;100.00;93315.22;5065597;28;20137;-73
2023/10/20 12:12:20;;;;;;;;;;;;;;;15.74;100.00;93325.25;5064777;28;19944;-80
2023/10/20 12:14:46;;;;;;;;;;;;;;;15.76;100.00;93327.59;5065874;28;19934;-81
2023/10/20 12:17:12;;;;;;;;;;;;;;;15.79;100.00;93345.41;5065406;28;19947;-80
2023/10/20 12:19:38;;;;;;;;;;;;;;;15.83;100.00;93339.16;5065817;28;20251;-79
2023/10/20 12:22:05;;;;;;;;;;;;;;;15.92;100.00;93338.31;5065706;28;19946;-79
2023/10/20 12:24:30;;;;;;;;;;;;;;;15.99;100.00;93330.59;5066302;28;19983;-80
2023/10/20 12:26:57;;;;;;;;;;;;;;;16.08;100.00;93322.56;5065667;28;19939;-78
2023/10/20 12:29:23;;;;;;;;;;;;;;;16.17;100.00;93323.25;5066097;28;19951;-72
2023/10/20 12:31:49;;;;;;;;;;;;;;;16.20;100.00;93309.38;5066091;28;20125;-74
2023/10/20 12:34:15;;;;;;;;;;;;;;;16.23;100.00;93298.13;5065504;28;20025;-73
2023/10/20 12:36:43;;;;;;;;;;;;;;;16.19;100.00;93302.53;5065749;28;19943;-73
2023/10/20 12:39:11;;;;;;;;;;;;;;;16.20;100.00;93306.72;5065701;28;20242;-73
2023/10/20 12:41:36;;;;;;;;;;;;;;;16.17;100.00;93310.81;5065394;28;19948;-73
2023/10/20 12:44:04;;;;;;;;;;;;;;;16.17;100.00;93325.91;5065313;28;19940;-73
2023/10/20 12:46:30;;;;;;;;;;;;;;;16.12;100.00;93311.00;5065887;28;20106;-77
2023/10/20 12:48:55;;;;;;;;;;;;;;;16.16;100.00;93319.06;5064014;28;19994;-73
2023/10/20 12:51:21;;;;;;;;;;;;;;;16.17;100.00;93345.19;5066021;28;20208;-73
2023/10/20 12:53:47;;;;;;;;;;;;;;;16.14;100.00;93356.38;5065897;28;19943;-73
2023/10/20 12:56:13;;;;;;;;;;;;;;;16.15;100.00;93343.97;5065104;28;19934;-72
2023/10/20 12:58:39;;;;;;;;;;;;;;;16.15;100.00;93341.31;5065525;28;19964;-73
2023/10/20 13:01:06;;;;;;;;;;;;;;;16.08;100.00;93312.78;5064993;28;20123;-73
2023/10/20 13:03:32;;;;;;;;;;;;;;;16.05;100.00;93347.03;5064933;28;19954;-77
2023/10/20 13:05:58;;;;;;;;;;;;;;;16.06;100.00;93361.78;5065127;28;19942;-75
2023/10/20 13:08:24;;;;;;;;;;;;;;;16.08;100.00;93344.47;5064992;28;20213;-80